Mount Blanchard, Ohio
Current Conditions -  °F | °C
As of 8:53 PM on Monday 24 Nov 2014 (Local Time) from KFDY Reporting Station
Overcast Overcast  
Wind Chill: 26°   Ceiling: 2400
Heat Index: 38°   Visibility: 10mi
Dew Point: 30°   Wind: 30mph
Humidity: 73%   Direction: 250°WSW
Pressure: 29.74"   Gusts: 36mph
Location:  40.9°N, 83.56°W
Report Text: KFDY 250153Z AUTO 25026G31KT 10SM BKN024 OVC035 03/M01 A2974 RMK AO2 PK WND 25035/0103 SLP071 T00331011
Loading
Personal Weather Stations






























Interactive Weather Map New forecast layout! Learn more

10-Day Weather Forecast

Advertisements
Track Severe Weather on mobile